This is the latest recevied weather packets stored in our database for station/object DM4WH-13. If no packets are shown the sender has not sent any weather packets the latest 10 day(s).
| Time | Temp. | Humidity | Pressure | Rain* | Wind** | Luminosity | Snow |
|---|---|---|---|---|---|---|---|
| 1777124407 | 17.22° C | 34% | 1015.8 hPa | 0 mm | 0.89 m/s, 280° | - | - |
| 1777124120 | 17.22° C | 37% | 1015.8 hPa | 0 mm | 0.89 m/s, 306° | - | - |
| 1777123807 | 17.22° C | 36% | 1015.9 hPa | 0 mm | 0.89 m/s, 306° | - | - |
| 1777123520 | 16.11° C | 36% | 1015.9 hPa | 0 mm | 0.45 m/s, 311° | - | - |
| 1777123207 | 17.22° C | 36% | 1015.9 hPa | 0 mm | 0.89 m/s, 323° | - | - |
| 1777122920 | 16.11° C | 35% | 1016 hPa | 0 mm | 0.89 m/s, 260° | - | - |
| 1777122607 | 16.11° C | 35% | 1016 hPa | 0 mm | 1.34 m/s, 285° | - | - |
| 1777122320 | 16.11° C | 36% | 1016.1 hPa | 0 mm | 0.89 m/s, 318° | - | - |
| 1777122007 | 17.22° C | 37% | 1016.1 hPa | 0 mm | 0.89 m/s, 303° | - | - |
| 1777121733 | 16.11° C | 40% | 1016.1 hPa | 0 mm | 0.45 m/s, 49° | - | - |
| 1777121420 | 16.11° C | 41% | 1016.1 hPa | 0 mm | 0.45 m/s, 276° | - | - |
| 1777121108 | 16.11° C | 42% | 1016.1 hPa | 0 mm | 0.45 m/s, 294° | - | - |
| 1777120820 | 16.11° C | 39% | 1016.1 hPa | 0 mm | 0.89 m/s, 288° | - | - |
| 1777120507 | 16.11° C | 43% | 1016.2 hPa | 0 mm | 0.45 m/s, 270° | - | - |
| 1777120220 | 15° C | 44% | 1016.2 hPa | 0 mm | 0.89 m/s, 264° | - | - |
| 1777119907 | 15° C | 42% | 1016.2 hPa | 0 mm | 1.34 m/s, 306° | - | - |
| 1777119620 | 16.11° C | 40% | 1016.3 hPa | 0 mm | 1.34 m/s, 261° | - | - |
| 1777119307 | 15° C | 46% | 1016.4 hPa | 0 mm | 0.45 m/s, 144° | - | - |
| 1777119020 | 16.11° C | 43% | 1016.4 hPa | 0 mm | 0.89 m/s, 294° | - | - |
| 1777118707 | 15° C | 44% | 1016.5 hPa | 0 mm | 0.45 m/s, 324° | - | - |
| 1777118420 | 15° C | 42% | 1016.6 hPa | 0 mm | 0.89 m/s, 309° | - | - |
| 1777118107 | 15° C | 44% | 1016.7 hPa | 0 mm | 0.89 m/s, 54° | - | - |
| 1777117819 | 15° C | 43% | 1016.7 hPa | 0 mm | 0.45 m/s, 216° | - | - |
| 1777117506 | 15° C | 46% | 1016.7 hPa | 0 mm | 0.89 m/s, 276° | - | - |
| 1777117219 | 13.89° C | 46% | 1016.8 hPa | 0 mm | 0.89 m/s, 311° | - | - |
* Rain latest hour (hover to see other rain measurements)
** Current wind speed in m/s (hover to see current wind gust speed)